Data for 09/03/2006

Time Sea-Level Adjusted Pressure Absolute Pressure Temperature Relative Humidity Dew Point   
(mb) (inHg) (mb) (inHg) (C) (F) (%) (C) (F)
00:05 1022 30.18 851 25.13 16.1 61.1 23 -4.9 23.1
00:10 1022 30.18 851 25.13 16.1 61.1 23 -4.8 23.3
00:15 1022 30.18 851 25.13 16 60.9 23 -5 23
00:20 1022 30.18 851 25.13 16 60.7 23 -5 23
00:25 1022 30.18 851 25.13 15.8 60.4 23 -5.1 22.8
00:30 1022 30.18 851 25.13 15.7 60.3 23 -5.2 22.6
00:35 1022 30.18 851 25.13 15.7 60.2 23 -5.2 22.6
00:40 1022 30.18 851 25.13 15.6 60 23 -5.3 22.4
00:45 1022 30.18 851 25.13 15.5 60 23 -5.5 22
00:50 1022 30.18 851 25.13 15.6 60.1 23 -5.6 21.8
00:55 1022 30.18 851 25.13 15.5 60 23 -5.6 21.9
01:00 1022 30.18 851 25.13 15.5 59.9 23 -5.6 21.9
01:05 1022 30.18 851 25.13 15.3 59.6 23 -5.5 22.1
01:10 1022 30.18 851 25.13 15.2 59.3 23 -5.7 21.7
01:15 1022 30.18 851 25.13 15.2 59.3 23 -5.7 21.7
01:20 1022 30.18 851 25.13 15.2 59.3 22 -6.2 20.9
01:25 1022 30.18 851 25.13 15.2 59.4 22 -6 21.1
01:30 1022 30.18 851 25.13 15.1 59.2 22 -6.1 21
01:35 1022 30.18 851 25.13 15.1 59.1 23 -5.9 21.3
01:40 1022 30.18 851 25.13 14.9 58.9 23 -5.9 21.4
01:45 1022 30.18 851 25.13 14.8 58.6 23 -6.1 21
01:50 1022 30.18 851 25.13 14.7 58.5 23 -6 21.1
01:55 1022 30.18 851 25.13 14.6 58.2 24 -5.9 21.4
02:00 1022 30.18 851 25.13 14.4 58 24 -5.9 21.4
02:05 1022 30.18 851 25.13 14.1 57.4 25 -5.6 21.9
02:10 1022 30.18 851 25.13 13.6 56.5 26 -5.6 22
02:15 1022 30.18 851 25.13 13.4 56.2 26 -5.8 21.6
02:20 1022 30.18 851 25.13 13.4 56.1 25 -6 21.3
02:25 1022 30.18 851 25.13 13.5 56.3 25 -6.1 21
02:30 1022 30.18 851 25.13 13.8 56.8 24 -6.2 20.8
02:35 1022 30.18 851 25.13 13.7 56.7 24 -6.4 20.6
02:40 1022 30.18 851 25.13 13.8 56.8 24 -6.3 20.7
02:45 1022 30.18 851 25.13 13.7 56.6 25 -6.2 20.9
02:50 1022 30.18 851 25.13 13.6 56.4 25 -6.2 20.8
02:55 1022 30.18 851 25.13 13.5 56.4 25 -6.1 20.9
03:00 1022 30.18 851 25.13 13.4 56.2 24 -6.4 20.4
03:05 1022 30.18 851 25.13 13.5 56.3 25 -6.2 20.8
03:10 1022 30.18 851 25.13 13.2 55.8 25 -6.3 20.6
03:15 1022 30.18 851 25.13 13.1 55.5 25 -6.3 20.6
03:20 1022 30.18 851 25.13 12.9 55.2 26 -6.2 20.8
03:25 1022 30.18 851 25.13 12.7 54.8 26 -6.2 20.9
03:30 1022 30.18 851 25.13 12.5 54.4 26 -6.4 20.6
03:35 1022 30.18 851 25.13 12.7 54.8 26 -6.2 20.8
03:40 1022 30.18 851 25.13 12.7 54.8 27 -5.8 21.5
03:45 1022 30.18 851 25.13 11.8 53.2 30 -5.1 22.7
03:50 1022 30.18 851 25.13 11 51.8 32 -5.2 22.6
03:55 1022 30.18 851 25.13 10.7 51.3 31 -5.7 21.7
04:00 1022 30.18 851 25.13 10.9 51.6 31 -5.5 22
04:05 1022 30.18 851 25.13 11.1 52 30 -5.6 21.9
04:10 1022 30.18 851 25.13 11.2 52.1 29 -6.1 21.1
04:15 1022 30.18 851 25.13 11.2 52.1 30 -5.7 21.7
04:20 1022 30.18 851 25.13 11.3 52.4 29 -6 21.2
04:25 1022 30.18 851 25.13 11.8 53.2 29 -5.7 21.7
04:30 1022 30.18 851 25.13 11.7 53.1 29 -5.5 22.1
04:35 1022 30.18 851 25.13 11.2 52.2 30 -5.5 22.1
04:40 1022 30.18 851 25.13 10.9 51.6 32 -5.2 22.6
04:45 1022 30.18 851 25.13 10.4 50.7 33 -5.3 22.5
04:50 1022 30.18 851 25.13 10.4 50.6 33 -5.3 22.4
04:55 1022 30.18 851 25.13 10.2 50.3 33 -5.4 22.3
05:00 1022 30.18 851 25.13 10 49.9 33 -5.4 22.2
05:05 1022 30.18 851 25.13 9.8 49.6 34 -5.3 22.4
05:10 1022 30.18 851 25.13 9.8 49.7 34 -5.4 22.3
05:15 1022 30.18 851 25.13 9.9 49.9 33 -5.4 22.2
05:20 1022 30.18 851 25.13 9.9 49.8 34 -5.3 22.4
05:25 1022 30.18 851 25.13 9.6 49.3 34 -5.5 22
05:30 1022 30.18 851 25.13 9.5 49.1 34 -5.4 22.3
05:35 1022 30.18 851 25.13 9.5 49.1 35 -5.2 22.6
05:40 1022 30.18 851 25.13 9.3 48.7 34 -5.6 21.9
05:45 1022 30.18 851 25.13 9.4 48.8 34 -5.7 21.7
05:50 1022 30.18 851 25.13 9.5 49.1 34 -5.5 22.1
05:55 1022 30.18 851 25.13 9.5 49 34 -5.5 22.2
06:00 1022 30.18 851 25.13 9.6 49.2 34 -5.6 21.9
06:05 1022 30.18 851 25.13 9.6 49.3 34 -5.4 22.3
06:10 1022 30.18 851 25.13 9.5 49.2 34 -5.5 22.1
06:15 1022 30.18 851 25.13 9.4 48.8 35 -5.3 22.4
06:20 1022 30.18 851 25.13 9.2 48.6 35 -5.5 22.1
06:25 1022 30.18 851 25.13 9.2 48.5 35 -5.5 22.1
06:30 1022 30.18 851 25.13 9.1 48.5 35 -5.4 22.2
06:35 1022 30.18 852 25.16 9.3 48.8 34 -5.6 21.9
06:40 1022 30.18 852 25.16 9.4 49 34 -5.5 22
06:45 1022 30.18 852 25.16 9.3 48.7 35 -5.4 22.3
06:50 1022 30.18 852 25.16 9 48.1 36 -5.4 22.2
06:55 1022 30.18 852 25.16 9.1 48.3 35 -5.5 22.1
07:00 1022 30.18 852 25.16 9.1 48.5 35 -5.5 22.1
07:05 1023 30.21 852 25.16 9.3 48.7 34 -5.8 21.5
07:10 1023 30.21 852 25.16 9.5 49.1 32 -6.2 20.9
07:15 1023 30.21 852 25.16 9.9 49.7 32 -5.9 21.5
07:20 1023 30.21 852 25.16 10.1 50.1 32 -5.8 21.5
07:25 1023 30.21 852 25.16 10 50.1 33 -5.6 21.9
07:30 1023 30.21 852 25.16 9.7 49.5 34 -5.5 22.2
07:35 1023 30.21 852 25.16 9.5 49 34 -5.5 22
07:40 1023 30.21 852 25.16 9.2 48.6 34 -5.8 21.6
07:45 1023 30.21 852 25.16 9.4 48.9 34 -5.8 21.6
07:50 1023 30.21 852 25.16 9.6 49.3 34 -5.5 22.1
07:55 1023 30.21 852 25.16 9.7 49.5 34 -5.5 22.2
08:00 1023 30.21 852 25.16 10 49.9 32 -5.8 21.5
08:05 1023 30.21 852 25.16 10.2 50.3 33 -5.4 22.2
08:10 1023 30.21 852 25.16 10.4 50.6 32 -5.5 22.1
08:15 1023 30.21 852 25.16 10.6 51.2 33 -5 23
08:20 1023 30.21 852 25.16 11 51.8 32 -5 23
08:25 1023 30.21 852 25.16 11.4 52.5 32 -4.7 23.6
08:30 1023 30.21 852 25.16 11.7 53 32 -4.5 23.9
08:35 1023 30.21 852 25.16 11.8 53.3 32 -4.3 24.3
08:40 1023 30.21 852 25.16 12.1 53.7 32 -4.1 24.6
08:45 1023 30.21 852 25.16 12.3 54.2 31 -4.4 24.1
08:50 1023 30.21 852 25.16 12.6 54.6 29 -4.8 23.4
08:55 1023 30.21 852 25.16 13.1 55.5 29 -4.5 24
09:00 1023 30.21 852 25.16 13.7 56.7 27 -4.7 23.6
09:05 1023 30.21 852 25.16 14.1 57.5 28 -3.9 25
09:10 1023 30.21 852 25.16 14.5 58.1 29 -3.5 25.8
09:15 1023 30.21 852 25.16 15 59 27 -3.8 25.2
09:20 1023 30.21 852 25.16 15.5 59.9 28 -3 26.5
09:25 1023 30.21 852 25.16 15.5 59.9 26 -3.8 25.2
09:30 1023 30.21 852 25.16 16 60.7 25 -3.7 25.3
09:35 1023 30.21 852 25.16 16.6 61.9 25 -3.6 25.4
09:40 1023 30.21 852 25.16 17 62.6 24 -3.5 25.6
09:45 1023 30.21 852 25.16 17.1 62.8 24 -3.5 25.8
09:50 1023 30.21 852 25.16 18.1 64.5 22 -3.9 25
09:55 1023 30.21 852 25.16 18.5 65.3 21 -4.2 24.4
10:00 1023 30.21 852 25.16 18.4 65.1 21 -4.1 24.5
10:05 1023 30.21 852 25.16 18.9 66 20 -4.3 24.3
10:10 1023 30.21 852 25.16 18.9 66.1 21 -4 24.8
10:15 1023 30.21 852 25.16 19.4 66.8 20 -4.4 24.2
10:20 1023 30.21 852 25.16 19.8 67.7 20 -3.5 25.7
10:25 1023 30.21 852 25.16 19.8 67.6 21 -2.9 26.7
10:30 1023 30.21 852 25.16 19.9 67.8 20 -3.5 25.7
10:35 1023 30.21 852 25.16 20.3 68.6 20 -3 26.6
10:40 1023 30.21 852 25.16 20.7 69.2 21 -2.1 28.3
10:45 1023 30.21 852 25.16 20.4 68.8 21 -2.3 27.8
10:50 1023 30.21 852 25.16 20.5 68.8 21 -2.2 28
10:55 1023 30.21 852 25.16 20.9 69.5 21 -1.9 28.5
11:00 1023 30.21 852 25.16 20.7 69.2 21 -2.1 28.2
11:05 1023 30.21 852 25.16 19.7 67.5 24 -1.2 29.9
11:10 1023 30.21 852 25.16 20.5 68.9 23 -0.9 30.3
11:15 1023 30.21 852 25.16 20.9 69.5 23 -1 30.2
11:20 1023 30.21 852 25.16 21.1 70.1 22 -1.5 29.3
11:25 1022 30.18 852 25.16 21.6 70.8 22 -1 30.1
11:30 1023 30.21 852 25.16 21.7 71.1 20 -2.1 28.2
11:35 1022 30.18 852 25.16 21.7 71.1 20 -2.3 27.9
11:40 1022 30.18 852 25.16 22.1 71.7 20 -1.9 28.5
11:45 1022 30.18 852 25.16 22.5 72.4 19 -2.4 27.7
11:50 1022 30.18 852 25.16 21.7 71.1 20 -1.9 28.5
11:55 1022 30.18 852 25.16 21.7 71.1 21 -1.6 29.2
12:00 1022 30.18 851 25.13 21.8 71.2 19 -2.9 26.8
12:05 1022 30.18 851 25.13 22.6 72.7 18 -2.8 26.9
12:10 1022 30.18 851 25.13 23 73.3 19 -1.5 29.2
12:15 1022 30.18 851 25.13 23.1 73.5 18 -2 28.5
12:20 1022 30.18 851 25.13 22.9 73.2 17 -3.6 25.6
12:25 1022 30.18 851 25.13 22.4 72.3 18 -2.7 27.2
12:30 1022 30.18 851 25.13 23 73.5 16 -4 24.8
12:35 1022 30.18 851 25.13 23.7 74.6 15 -3.9 24.9
12:40 1022 30.18 851 25.13 22.9 73.3 17 -2.9 26.8
12:45 1022 30.18 851 25.13 23.2 73.8 17 -3.1 26.4
12:50 1022 30.18 851 25.13 23.2 73.7 18 -2.2 28
12:55 1022 30.18 851 25.13 24.1 75.3 16 -3.5 25.7
13:00 1022 30.18 851 25.13 24.6 76.3 15 -3.5 25.7
13:05 1022 30.18 851 25.13 25.2 77.3 14 -3.7 25.4
13:10 1022 30.18 851 25.13 25.5 77.8 14 -3.6 25.4
13:15 1022 30.18 851 25.13 25 76.9 15 -3.1 26.4
13:20 1022 30.18 851 25.13 25.2 77.4 15 -3.3 26
13:25 1022 30.18 851 25.13 25.8 78.5 15 -2.9 26.7
13:30 1022 30.18 851 25.13 26.5 79.6 14 -3.2 26.3
13:35 1021 30.15 851 25.13 26.5 79.7 13 -3.6 25.5
13:40 1021 30.15 851 25.13 26.9 80.5 13 -3 26.5
13:45 1021 30.15 850 25.1 26.8 80.2 13 -3.5 25.6
13:50 1021 30.15 850 25.1 27 80.6 13 -3.8 25.2
13:55 1021 30.15 850 25.1 27.6 81.6 13 -3.1 26.3
14:00 1021 30.15 850 25.1 28 82.4 12 -3.5 25.7
14:05 1021 30.15 850 25.1 26.8 80.3 12 -4.2 24.4
14:10 1021 30.15 850 25.1 25.8 78.5 12 -5.1 22.8
14:15 1021 30.15 850 25.1 25.9 78.6 13 -4.1 24.6
14:20 1021 30.15 850 25.1 27.3 81.1 12 -4.4 24.1
14:25 1021 30.15 850 25.1 28 82.4 12 -4.1 24.6
14:30 1021 30.15 850 25.1 27.9 82.2 11 -5 23.1
14:35 1021 30.15 850 25.1 27.6 81.6 12 -4.6 23.8
14:40 1021 30.15 850 25.1 27.6 81.7 11 -4.7 23.5
14:45 1021 30.15 850 25.1 28.4 83.2 11 -4.9 23.3
14:50 1021 30.15 850 25.1 28.1 82.7 12 -4.1 24.6
14:55 1021 30.15 850 25.1 28.6 83.4 10 -5.2 22.6
15:00 1021 30.15 850 25.1 28.5 83.3 10 -5.7 21.8
15:05 1021 30.15 850 25.1 29 84.3 10 -5.3 22.5
15:10 1021 30.15 850 25.1 28.9 83.9 11 -4.2 24.4
15:15 1021 30.15 850 25.1 29.2 84.6 11 -3.9 25
15:20 1020 30.12 850 25.1 29.5 85.1 11 -3.2 26.2
15:25 1020 30.12 850 25.1 29.4 84.8 11 -4.3 24.3
15:30 1020 30.12 850 25.1 29.4 84.9 11 -3.8 25.1
15:35 1020 30.12 850 25.1 29.8 85.7 10 -5.2 22.7
15:40 1020 30.12 849 25.07 30 86 10 -5.1 22.9
15:45 1020 30.12 849 25.07 29.7 85.4 9 -5.6 21.9
15:50 1020 30.12 849 25.07 29.8 85.7 10 -4.2 24.5
15:55 1020 30.12 849 25.07 29 84.1 10 -5.3 22.5
16:00 1020 30.12 849 25.07 27.9 82.2 11 -5.5 22.1
16:05 1020 30.12 849 25.07 28.8 83.8 10 -4.9 23.1
16:10 1020 30.12 849 25.07 29.9 85.8 10 -5.1 22.9
16:15 1020 30.12 849 25.07 30 86 10 -5 23
16:20 1020 30.12 849 25.07 29 84.1 10 -5.2 22.7
16:25 1020 30.12 849 25.07 29.1 84.4 10 -5.5 22.2
16:30 1020 30.12 849 25.07 29.1 84.4 11 -4.4 24
16:35 1020 30.12 849 25.07 29 84.2 10 -5.8 21.5
16:40 1020 30.12 849 25.07 28.9 84 9 -7.3 18.9
16:45 1020 30.12 849 25.07 28.5 83.2 9 -7.2 19
16:50 1020 30.12 849 25.07 28.3 83 10 -6.1 21
16:55 1020 30.12 849 25.07 28.4 83.2 10 -6.2 20.8
17:00 1020 30.12 849 25.07 27.9 82.3 9 -7.7 18.1
17:05 1020 30.12 849 25.07 27.7 81.8 9 -7.3 18.9
17:10 1020 30.12 849 25.07 27.5 81.5 10 -7.3 18.9
17:15 1020 30.12 849 25.07 27.5 81.5 10 -7.1 19.2
17:20 1020 30.12 849 25.07 27.4 81.3 10 -6.2 20.8
17:25 1020 30.12 849 25.07 27.4 81.2 10 -6.9 19.5
17:30 1020 30.12 849 25.07 27.2 80.9 10 -6.5 20.3
17:35 1020 30.12 849 25.07 27 80.6 10 -7.6 18.4
17:40 1020 30.12 849 25.07 26.7 80.1 10 -7.5 18.5
17:45 1020 30.12 849 25.07 26.5 79.7 10 -8 17.5
17:50 1020 30.12 849 25.07 26.3 79.4 10 -7.9 17.8
17:55 1020 30.12 849 25.07 26.1 79 9 -8.6 16.5
18:00 1020 30.12 849 25.07 25.9 78.6 10 -7.2 19
18:05 1020 30.12 849 25.07 25.6 78 11 -7.3 18.8
18:10 1020 30.12 849 25.07 25.2 77.4 10 -8 17.5
18:15 1020 30.12 849 25.07 25 77 11 -7.8 18
18:20 1020 30.12 849 25.07 24.9 76.9 10 -8 17.6
18:25 1020 30.12 849 25.07 24.8 76.6 10 -8.3 17.1
18:30 1020 30.12 849 25.07 24.7 76.4 11 -8 17.6
18:35 1020 30.12 849 25.07 24.6 76.2 10 -8.3 17
18:40 1020 30.12 849 25.07 24.5 76 11 -8 17.5
18:45 1020 30.12 849 25.07 24.3 75.8 10 -8.5 16.7
18:50 1020 30.12 849 25.07 24.2 75.6 11 -8.1 17.4
18:55 1020 30.12 849 25.07 24.1 75.3 11 -8.2 17.2
19:00 1020 30.12 849 25.07 24 75.2 11 -8.4 16.8
19:05 1020 30.12 849 25.07 23.8 74.9 11 -7.9 17.7
19:10 1020 30.12 849 25.07 23.7 74.6 11 -8.2 17.3
19:15 1020 30.12 849 25.07 23.6 74.5 11 -7.9 17.8
19:20 1020 30.12 849 25.07 23.5 74.2 12 -7.8 17.9
19:25 1020 30.12 849 25.07 23.3 74 12 -7.8 18
19:30 1020 30.12 849 25.07 23.1 73.7 12 -7.8 18
19:35 1020 30.12 849 25.07 23 73.4 12 -7.7 18.2
19:40 1020 30.12 849 25.07 22.8 73 12 -7.9 17.9
19:45 1020 30.12 849 25.07 22.7 72.8 12 -7.5 18.5
19:50 1020 30.12 849 25.07 22.6 72.6 12 -7.6 18.4
19:55 1020 30.12 849 25.07 22.5 72.6 13 -7.2 19
20:00 1020 30.12 849 25.07 22.5 72.4 13 -7.1 19.3
20:05 1020 30.12 849 25.07 22.4 72.3 13 -7.4 18.6
20:10 1020 30.12 849 25.07 22.4 72.2 13 -6.9 19.5
20:15 1020 30.12 849 25.07 22.2 71.9 13 -7.1 19.2
20:20 1020 30.12 849 25.07 22.1 71.8 13 -7 19.5
20:25 1020 30.12 849 25.07 22 71.7 13 -7 19.4
20:30 1020 30.12 849 25.07 22 71.5 14 -7 19.4
20:35 1020 30.12 849 25.07 21.9 71.4 13 -7.2 19
20:40 1020 30.12 849 25.07 21.8 71.2 14 -7.2 19.1
20:45 1020 30.12 849 25.07 21.7 71.1 13 -7.4 18.7
20:50 1020 30.12 850 25.1 21.7 71.1 13 -7.3 18.8
20:55 1020 30.12 850 25.1 21.6 70.8 14 -7.3 18.8
21:00 1021 30.15 850 25.1 21.5 70.7 14 -7.3 18.9
21:05 1020 30.12 850 25.1 21.4 70.5 14 -7.4 18.7
21:10 1021 30.15 850 25.1 21.4 70.5 14 -7.4 18.7
21:15 1021 30.15 850 25.1 21.3 70.3 14 -7.5 18.5
21:20 1021 30.15 850 25.1 21.1 70.1 14 -7.5 18.5
21:25 1021 30.15 850 25.1 21.1 69.9 14 -7.5 18.5
21:30 1021 30.15 850 25.1 21.1 70.1 14 -7.6 18.3
21:35 1021 30.15 850 25.1 21.1 69.9 14 -7.6 18.3
21:40 1021 30.15 850 25.1 21 69.7 14 -7.7 18.2
21:45 1021 30.15 850 25.1 21 69.8 14 -7.6 18.3
21:50 1021 30.15 850 25.1 21 69.7 14 -7.7 18.1
21:55 1021 30.15 850 25.1 20.8 69.4 14 -7.7 18.1
22:00 1021 30.15 850 25.1 20.6 69.1 14 -7.8 18
22:05 1021 30.15 850 25.1 20.5 68.9 14 -7.8 18
22:10 1021 30.15 850 25.1 20.4 68.8 14 -7.8 17.9
22:15 1021 30.15 850 25.1 20.4 68.8 14 -7.7 18.1
22:20 1021 30.15 850 25.1 20.3 68.5 14 -7.8 18
22:25 1021 30.15 850 25.1 20.2 68.3 14 -7.8 18
22:30 1021 30.15 850 25.1 20.1 68.1 14 -7.8 17.9
22:35 1021 30.15 850 25.1 19.9 67.9 14 -7.9 17.8
22:40 1021 30.15 850 25.1 19.8 67.6 14 -8 17.6
22:45 1021 30.15 850 25.1 19.7 67.4 15 -8 17.7
22:50 1021 30.15 850 25.1 19.5 67.2 15 -8.1 17.5
22:55 1021 30.15 850 25.1 19.5 67 15 -8.1 17.4
23:00 1021 30.15 850 25.1 19.4 66.9 15 -8.2 17.2
23:05 1021 30.15 850 25.1 19.3 66.7 14 -8.4 16.9
23:10 1021 30.15 850 25.1 19.3 66.7 15 -8.3 17
23:15 1021 30.15 850 25.1 19.2 66.6 14 -8.6 16.5
23:20 1021 30.15 850 25.1 19.1 66.5 14 -8.5 16.6
23:25 1021 30.15 850 25.1 19.1 66.3 14 -8.6 16.5
23:30 1021 30.15 850 25.1 19.1 66.3 14 -8.8 16.2
23:35 1021 30.15 850 25.1 19 66.2 14 -8.8 16.2
23:40 1021 30.15 850 25.1 18.9 66 14 -8.9 16
23:45 1021 30.15 850 25.1 18.9 66.1 14 -8.9 16
23:50 1021 30.15 850 25.1 18.9 66 14 -8.9 16
23:55 1021 30.15 850 25.1 18.8 65.8 14 -9 15.8
24:00 1021 30.15 850 25.1 18.8 65.9 14 -9 15.7